sensor_id;sensor_type;location;lat;lon;timestamp;P1;durP1;ratioP1;P2;durP2;ratioP2
313;SDS011;143;51.634;7.112;2023-12-20T00:00:16;44.80;;;21.70;;
313;SDS011;143;51.634;7.112;2023-12-20T00:02:42;38.20;;;20.50;;
313;SDS011;143;51.634;7.112;2023-12-20T00:05:12;42.60;;;22.17;;
313;SDS011;143;51.634;7.112;2023-12-20T00:07:40;38.87;;;21.07;;
313;SDS011;143;51.634;7.112;2023-12-20T00:10:06;43.47;;;19.70;;
313;SDS011;143;51.634;7.112;2023-12-20T00:12:32;38.87;;;18.53;;
313;SDS011;143;51.634;7.112;2023-12-20T00:14:57;28.20;;;15.60;;
313;SDS011;143;51.634;7.112;2023-12-20T00:17:23;29.10;;;14.43;;
313;SDS011;143;51.634;7.112;2023-12-20T00:19:49;28.07;;;13.53;;
313;SDS011;143;51.634;7.112;2023-12-20T00:22:14;31.93;;;15.53;;
313;SDS011;143;51.634;7.112;2023-12-20T00:24:40;30.40;;;13.43;;
313;SDS011;143;51.634;7.112;2023-12-20T00:27:05;27.40;;;15.10;;
313;SDS011;143;51.634;7.112;2023-12-20T00:29:31;31.83;;;14.73;;
313;SDS011;143;51.634;7.112;2023-12-20T00:31:56;28.80;;;13.67;;
313;SDS011;143;51.634;7.112;2023-12-20T00:34:22;36.30;;;13.80;;
313;SDS011;143;51.634;7.112;2023-12-20T00:36:47;27.90;;;13.47;;
313;SDS011;143;51.634;7.112;2023-12-20T00:39:13;29.90;;;12.97;;
313;SDS011;143;51.634;7.112;2023-12-20T00:41:38;21.27;;;11.27;;
313;SDS011;143;51.634;7.112;2023-12-20T00:44:04;27.10;;;10.87;;
313;SDS011;143;51.634;7.112;2023-12-20T00:46:29;18.97;;;10.77;;
313;SDS011;143;51.634;7.112;2023-12-20T00:48:55;24.07;;;10.57;;
313;SDS011;143;51.634;7.112;2023-12-20T00:51:20;22.10;;;11.17;;
313;SDS011;143;51.634;7.112;2023-12-20T00:53:47;23.47;;;11.03;;
313;SDS011;143;51.634;7.112;2023-12-20T00:56:14;20.87;;;10.80;;
313;SDS011;143;51.634;7.112;2023-12-20T00:58:39;21.90;;;9.33;;
313;SDS011;143;51.634;7.112;2023-12-20T01:01:05;19.17;;;10.17;;
313;SDS011;143;51.634;7.112;2023-12-20T01:03:31;20.93;;;8.40;;
313;SDS011;143;51.634;7.112;2023-12-20T01:05:56;19.60;;;8.37;;
313;SDS011;143;51.634;7.112;2023-12-20T01:08:22;20.53;;;8.50;;
313;SDS011;143;51.634;7.112;2023-12-20T01:10:47;23.30;;;8.53;;
313;SDS011;143;51.634;7.112;2023-12-20T01:13:13;21.63;;;8.40;;
313;SDS011;143;51.634;7.112;2023-12-20T01:15:39;17.73;;;7.07;;
313;SDS011;143;51.634;7.112;2023-12-20T01:18:04;23.73;;;7.33;;
313;SDS011;143;51.634;7.112;2023-12-20T01:20:30;21.20;;;6.67;;
313;SDS011;143;51.634;7.112;2023-12-20T01:22:56;24.87;;;7.47;;
313;SDS011;143;51.634;7.112;2023-12-20T01:25:21;19.77;;;7.33;;
313;SDS011;143;51.634;7.112;2023-12-20T01:27:47;21.37;;;8.60;;
313;SDS011;143;51.634;7.112;2023-12-20T01:30:13;18.20;;;7.40;;
313;SDS011;143;51.634;7.112;2023-12-20T01:32:39;16.27;;;7.70;;
313;SDS011;143;51.634;7.112;2023-12-20T01:35:05;22.60;;;8.87;;
313;SDS011;143;51.634;7.112;2023-12-20T01:37:31;20.43;;;8.50;;
313;SDS011;143;51.634;7.112;2023-12-20T01:39:56;15.70;;;7.60;;
313;SDS011;143;51.634;7.112;2023-12-20T01:42:23;17.53;;;7.60;;
313;SDS011;143;51.634;7.112;2023-12-20T01:44:49;20.63;;;7.73;;
313;SDS011;143;51.634;7.112;2023-12-20T01:47:14;26.63;;;9.13;;
313;SDS011;143;51.634;7.112;2023-12-20T01:49:41;26.27;;;8.13;;
313;SDS011;143;51.634;7.112;2023-12-20T01:52:06;21.43;;;8.90;;
313;SDS011;143;51.634;7.112;2023-12-20T01:54:33;20.53;;;7.57;;
313;SDS011;143;51.634;7.112;2023-12-20T01:57:00;12.87;;;7.33;;
313;SDS011;143;51.634;7.112;2023-12-20T01:59:26;16.70;;;7.47;;
313;SDS011;143;51.634;7.112;2023-12-20T02:01:53;25.10;;;7.63;;
313;SDS011;143;51.634;7.112;2023-12-20T02:04:19;18.83;;;7.53;;
313;SDS011;143;51.634;7.112;2023-12-20T02:06:44;19.80;;;7.60;;
313;SDS011;143;51.634;7.112;2023-12-20T02:09:11;26.40;;;7.00;;
313;SDS011;143;51.634;7.112;2023-12-20T02:11:37;24.33;;;7.97;;
313;SDS011;143;51.634;7.112;2023-12-20T02:14:03;23.73;;;8.40;;
313;SDS011;143;51.634;7.112;2023-12-20T02:16:29;19.40;;;6.57;;
313;SDS011;143;51.634;7.112;2023-12-20T02:18:55;25.93;;;7.00;;
313;SDS011;143;51.634;7.112;2023-12-20T02:21:33;21.20;;;8.07;;
313;SDS011;143;51.634;7.112;2023-12-20T02:24:02;28.87;;;8.83;;
313;SDS011;143;51.634;7.112;2023-12-20T02:26:27;21.30;;;7.77;;
313;SDS011;143;51.634;7.112;2023-12-20T02:28:53;18.53;;;7.53;;
313;SDS011;143;51.634;7.112;2023-12-20T02:31:22;20.27;;;8.43;;
313;SDS011;143;51.634;7.112;2023-12-20T02:33:48;24.03;;;7.63;;
313;SDS011;143;51.634;7.112;2023-12-20T02:36:14;20.00;;;7.10;;
313;SDS011;143;51.634;7.112;2023-12-20T02:38:40;22.43;;;7.77;;
313;SDS011;143;51.634;7.112;2023-12-20T02:41:05;28.83;;;7.60;;
313;SDS011;143;51.634;7.112;2023-12-20T02:43:31;19.97;;;7.23;;
313;SDS011;143;51.634;7.112;2023-12-20T02:45:56;21.87;;;6.67;;
313;SDS011;143;51.634;7.112;2023-12-20T02:48:22;29.00;;;7.73;;
313;SDS011;143;51.634;7.112;2023-12-20T02:50:47;22.10;;;8.33;;
313;SDS011;143;51.634;7.112;2023-12-20T02:53:14;17.43;;;6.70;;
313;SDS011;143;51.634;7.112;2023-12-20T02:55:46;15.33;;;6.90;;
313;SDS011;143;51.634;7.112;2023-12-20T02:58:11;38.63;;;7.93;;
313;SDS011;143;51.634;7.112;2023-12-20T03:00:37;30.30;;;7.40;;
313;SDS011;143;51.634;7.112;2023-12-20T03:03:02;25.13;;;7.80;;
313;SDS011;143;51.634;7.112;2023-12-20T03:05:28;23.63;;;7.60;;
313;SDS011;143;51.634;7.112;2023-12-20T03:07:54;18.00;;;8.27;;
313;SDS011;143;51.634;7.112;2023-12-20T03:10:19;35.90;;;9.07;;
313;SDS011;143;51.634;7.112;2023-12-20T03:12:45;18.17;;;8.07;;
313;SDS011;143;51.634;7.112;2023-12-20T03:15:10;32.63;;;8.90;;
313;SDS011;143;51.634;7.112;2023-12-20T03:17:36;26.30;;;8.93;;
313;SDS011;143;51.634;7.112;2023-12-20T03:20:02;34.03;;;8.87;;
313;SDS011;143;51.634;7.112;2023-12-20T03:22:27;19.07;;;8.27;;
313;SDS011;143;51.634;7.112;2023-12-20T03:24:53;33.80;;;10.40;;
313;SDS011;143;51.634;7.112;2023-12-20T03:27:18;41.20;;;9.57;;
313;SDS011;143;51.634;7.112;2023-12-20T03:29:44;24.63;;;8.20;;
313;SDS011;143;51.634;7.112;2023-12-20T03:32:09;22.03;;;8.70;;
313;SDS011;143;51.634;7.112;2023-12-20T03:34:35;27.83;;;10.63;;
313;SDS011;143;51.634;7.112;2023-12-20T03:37:00;31.70;;;9.20;;
313;SDS011;143;51.634;7.112;2023-12-20T03:39:26;23.43;;;8.90;;
313;SDS011;143;51.634;7.112;2023-12-20T03:41:52;26.93;;;10.20;;
313;SDS011;143;51.634;7.112;2023-12-20T03:44:17;27.43;;;9.50;;
313;SDS011;143;51.634;7.112;2023-12-20T03:46:43;25.23;;;9.50;;
313;SDS011;143;51.634;7.112;2023-12-20T03:49:10;28.73;;;9.80;;
313;SDS011;143;51.634;7.112;2023-12-20T03:51:36;27.87;;;9.00;;
313;SDS011;143;51.634;7.112;2023-12-20T03:54:01;21.07;;;8.43;;
313;SDS011;143;51.634;7.112;2023-12-20T03:56:27;26.83;;;8.40;;
313;SDS011;143;51.634;7.112;2023-12-20T03:58:52;38.80;;;8.23;;
313;SDS011;143;51.634;7.112;2023-12-20T04:01:18;36.07;;;8.70;;
313;SDS011;143;51.634;7.112;2023-12-20T04:03:44;32.17;;;8.73;;
313;SDS011;143;51.634;7.112;2023-12-20T04:06:09;15.13;;;6.83;;
313;SDS011;143;51.634;7.112;2023-12-20T04:08:35;31.30;;;6.30;;
313;SDS011;143;51.634;7.112;2023-12-20T04:11:00;19.90;;;6.00;;
313;SDS011;143;51.634;7.112;2023-12-20T04:13:26;23.10;;;6.33;;
313;SDS011;143;51.634;7.112;2023-12-20T04:15:51;25.20;;;6.60;;
313;SDS011;143;51.634;7.112;2023-12-20T04:18:17;17.27;;;6.30;;
313;SDS011;143;51.634;7.112;2023-12-20T04:20:42;20.90;;;7.83;;
313;SDS011;143;51.634;7.112;2023-12-20T04:23:08;24.73;;;7.17;;
313;SDS011;143;51.634;7.112;2023-12-20T04:25:34;22.50;;;7.17;;
313;SDS011;143;51.634;7.112;2023-12-20T04:27:59;25.70;;;7.50;;
313;SDS011;143;51.634;7.112;2023-12-20T04:30:25;27.87;;;7.70;;
313;SDS011;143;51.634;7.112;2023-12-20T04:32:50;27.27;;;8.47;;
313;SDS011;143;51.634;7.112;2023-12-20T04:35:16;25.20;;;7.67;;
313;SDS011;143;51.634;7.112;2023-12-20T04:37:41;22.80;;;7.37;;
313;SDS011;143;51.634;7.112;2023-12-20T04:40:07;32.67;;;8.10;;
313;SDS011;143;51.634;7.112;2023-12-20T04:42:33;31.70;;;7.40;;
313;SDS011;143;51.634;7.112;2023-12-20T04:44:59;24.10;;;7.40;;
313;SDS011;143;51.634;7.112;2023-12-20T04:47:24;26.27;;;8.00;;
313;SDS011;143;51.634;7.112;2023-12-20T04:49:50;21.10;;;7.73;;
313;SDS011;143;51.634;7.112;2023-12-20T04:52:15;26.83;;;6.20;;
313;SDS011;143;51.634;7.112;2023-12-20T04:54:41;26.40;;;8.60;;
313;SDS011;143;51.634;7.112;2023-12-20T04:57:06;26.23;;;6.80;;
313;SDS011;143;51.634;7.112;2023-12-20T04:59:32;31.70;;;8.33;;
313;SDS011;143;51.634;7.112;2023-12-20T05:01:57;27.63;;;6.80;;
313;SDS011;143;51.634;7.112;2023-12-20T05:04:23;19.00;;;6.20;;
313;SDS011;143;51.634;7.112;2023-12-20T05:06:49;32.47;;;6.53;;
313;SDS011;143;51.634;7.112;2023-12-20T05:09:15;32.57;;;5.43;;
313;SDS011;143;51.634;7.112;2023-12-20T05:11:40;29.37;;;6.63;;
313;SDS011;143;51.634;7.112;2023-12-20T05:14:06;19.37;;;6.33;;
313;SDS011;143;51.634;7.112;2023-12-20T05:16:32;30.57;;;7.00;;
313;SDS011;143;51.634;7.112;2023-12-20T05:18:57;22.43;;;5.97;;
313;SDS011;143;51.634;7.112;2023-12-20T05:21:25;26.23;;;6.97;;
313;SDS011;143;51.634;7.112;2023-12-20T05:23:51;26.47;;;6.00;;
313;SDS011;143;51.634;7.112;2023-12-20T05:26:16;33.13;;;7.20;;
313;SDS011;143;51.634;7.112;2023-12-20T05:28:42;17.53;;;5.97;;
313;SDS011;143;51.634;7.112;2023-12-20T05:31:07;34.20;;;7.73;;
313;SDS011;143;51.634;7.112;2023-12-20T05:33:34;28.95;;;6.40;;
313;SDS011;143;51.634;7.112;2023-12-20T05:35:59;31.63;;;6.47;;
313;SDS011;143;51.634;7.112;2023-12-20T05:38:25;41.77;;;7.03;;
313;SDS011;143;51.634;7.112;2023-12-20T05:40:51;31.07;;;6.90;;
313;SDS011;143;51.634;7.112;2023-12-20T05:43:16;22.60;;;5.20;;
313;SDS011;143;51.634;7.112;2023-12-20T05:45:42;23.97;;;6.37;;
313;SDS011;143;51.634;7.112;2023-12-20T05:48:07;21.27;;;5.50;;
313;SDS011;143;51.634;7.112;2023-12-20T05:50:33;18.90;;;6.43;;
313;SDS011;143;51.634;7.112;2023-12-20T05:52:59;26.15;;;6.40;;
313;SDS011;143;51.634;7.112;2023-12-20T05:55:25;26.30;;;8.50;;
313;SDS011;143;51.634;7.112;2023-12-20T05:57:51;27.87;;;7.40;;
313;SDS011;143;51.634;7.112;2023-12-20T06:00:17;25.80;;;7.50;;
313;SDS011;143;51.634;7.112;2023-12-20T06:02:43;26.37;;;7.37;;
313;SDS011;143;51.634;7.112;2023-12-20T06:05:08;29.07;;;8.00;;
313;SDS011;143;51.634;7.112;2023-12-20T06:07:34;36.93;;;7.50;;
313;SDS011;143;51.634;7.112;2023-12-20T06:10:00;38.50;;;8.73;;
313;SDS011;143;51.634;7.112;2023-12-20T06:12:25;28.60;;;8.40;;
313;SDS011;143;51.634;7.112;2023-12-20T06:14:57;28.00;;;7.63;;
313;SDS011;143;51.634;7.112;2023-12-20T06:17:22;24.33;;;7.17;;
313;SDS011;143;51.634;7.112;2023-12-20T06:19:48;26.97;;;7.50;;
313;SDS011;143;51.634;7.112;2023-12-20T06:22:14;32.30;;;8.17;;
313;SDS011;143;51.634;7.112;2023-12-20T06:24:40;31.13;;;7.82;;
313;SDS011;143;51.634;7.112;2023-12-20T06:27:09;24.30;;;6.57;;
313;SDS011;143;51.634;7.112;2023-12-20T06:29:34;25.43;;;8.60;;
313;SDS011;143;51.634;7.112;2023-12-20T06:32:00;25.47;;;7.50;;
313;SDS011;143;51.634;7.112;2023-12-20T06:34:25;38.47;;;9.33;;
313;SDS011;143;51.634;7.112;2023-12-20T06:36:51;37.27;;;7.90;;
313;SDS011;143;51.634;7.112;2023-12-20T06:39:16;25.00;;;7.37;;
313;SDS011;143;51.634;7.112;2023-12-20T06:41:42;34.70;;;9.27;;
313;SDS011;143;51.634;7.112;2023-12-20T06:44:08;24.03;;;8.77;;
313;SDS011;143;51.634;7.112;2023-12-20T06:46:34;31.40;;;8.90;;
313;SDS011;143;51.634;7.112;2023-12-20T06:48:59;27.83;;;7.97;;
313;SDS011;143;51.634;7.112;2023-12-20T06:51:25;28.63;;;8.43;;
313;SDS011;143;51.634;7.112;2023-12-20T06:53:51;25.57;;;7.70;;
313;SDS011;143;51.634;7.112;2023-12-20T06:56:17;27.45;;;8.38;;
313;SDS011;143;51.634;7.112;2023-12-20T06:58:43;36.53;;;8.83;;
313;SDS011;143;51.634;7.112;2023-12-20T07:01:12;30.10;;;8.03;;
313;SDS011;143;51.634;7.112;2023-12-20T07:03:38;28.57;;;8.70;;
313;SDS011;143;51.634;7.112;2023-12-20T07:06:04;22.87;;;8.93;;
313;SDS011;143;51.634;7.112;2023-12-20T07:08:30;32.37;;;9.00;;
313;SDS011;143;51.634;7.112;2023-12-20T07:10:56;30.33;;;8.77;;
313;SDS011;143;51.634;7.112;2023-12-20T07:13:21;30.03;;;8.17;;
313;SDS011;143;51.634;7.112;2023-12-20T07:15:47;42.97;;;9.50;;
313;SDS011;143;51.634;7.112;2023-12-20T07:18:13;21.43;;;7.53;;
313;SDS011;143;51.634;7.112;2023-12-20T07:20:39;24.53;;;8.27;;
313;SDS011;143;51.634;7.112;2023-12-20T07:23:04;23.70;;;8.03;;
313;SDS011;143;51.634;7.112;2023-12-20T07:25:30;21.47;;;7.70;;
313;SDS011;143;51.634;7.112;2023-12-20T07:27:57;33.23;;;7.30;;
313;SDS011;143;51.634;7.112;2023-12-20T07:30:23;29.43;;;7.43;;
313;SDS011;143;51.634;7.112;2023-12-20T07:32:49;22.07;;;8.00;;
313;SDS011;143;51.634;7.112;2023-12-20T07:35:17;27.10;;;8.00;;
313;SDS011;143;51.634;7.112;2023-12-20T07:37:43;31.77;;;10.50;;
313;SDS011;143;51.634;7.112;2023-12-20T07:40:09;27.00;;;7.30;;
313;SDS011;143;51.634;7.112;2023-12-20T07:42:35;19.27;;;7.90;;
313;SDS011;143;51.634;7.112;2023-12-20T07:45:00;51.70;;;8.60;;
313;SDS011;143;51.634;7.112;2023-12-20T07:47:26;19.53;;;6.43;;
313;SDS011;143;51.634;7.112;2023-12-20T07:49:51;26.87;;;6.90;;
313;SDS011;143;51.634;7.112;2023-12-20T07:52:18;36.13;;;6.93;;
313;SDS011;143;51.634;7.112;2023-12-20T07:54:44;36.00;;;7.73;;
313;SDS011;143;51.634;7.112;2023-12-20T07:57:10;30.38;;;7.00;;
313;SDS011;143;51.634;7.112;2023-12-20T07:59:36;26.95;;;7.10;;
313;SDS011;143;51.634;7.112;2023-12-20T08:02:01;25.13;;;6.90;;
313;SDS011;143;51.634;7.112;2023-12-20T08:04:27;25.87;;;7.17;;
313;SDS011;143;51.634;7.112;2023-12-20T08:06:53;31.50;;;7.93;;
313;SDS011;143;51.634;7.112;2023-12-20T08:09:18;27.50;;;8.67;;
313;SDS011;143;51.634;7.112;2023-12-20T08:11:47;30.40;;;7.30;;
313;SDS011;143;51.634;7.112;2023-12-20T08:14:13;25.87;;;7.63;;
313;SDS011;143;51.634;7.112;2023-12-20T08:16:39;30.80;;;7.37;;
313;SDS011;143;51.634;7.112;2023-12-20T08:19:04;26.90;;;6.10;;
313;SDS011;143;51.634;7.112;2023-12-20T08:21:30;25.10;;;6.33;;
313;SDS011;143;51.634;7.112;2023-12-20T08:23:55;37.13;;;6.97;;
313;SDS011;143;51.634;7.112;2023-12-20T08:26:21;24.27;;;6.20;;
313;SDS011;143;51.634;7.112;2023-12-20T08:28:48;25.58;;;7.00;;
313;SDS011;143;51.634;7.112;2023-12-20T08:31:14;28.77;;;7.33;;
313;SDS011;143;51.634;7.112;2023-12-20T08:33:41;19.43;;;6.67;;
313;SDS011;143;51.634;7.112;2023-12-20T08:36:08;26.90;;;6.83;;
313;SDS011;143;51.634;7.112;2023-12-20T08:38:33;26.57;;;6.53;;
313;SDS011;143;51.634;7.112;2023-12-20T08:40:59;21.77;;;5.93;;
313;SDS011;143;51.634;7.112;2023-12-20T08:43:24;27.27;;;7.20;;
313;SDS011;143;51.634;7.112;2023-12-20T08:45:50;24.87;;;6.30;;
313;SDS011;143;51.634;7.112;2023-12-20T08:48:16;26.40;;;5.80;;
313;SDS011;143;51.634;7.112;2023-12-20T08:50:41;30.73;;;6.77;;
313;SDS011;143;51.634;7.112;2023-12-20T08:53:07;25.73;;;7.30;;
313;SDS011;143;51.634;7.112;2023-12-20T08:55:32;19.67;;;6.40;;
313;SDS011;143;51.634;7.112;2023-12-20T08:57:58;30.73;;;7.20;;
313;SDS011;143;51.634;7.112;2023-12-20T09:00:23;24.80;;;7.23;;
313;SDS011;143;51.634;7.112;2023-12-20T09:02:52;20.83;;;5.73;;
313;SDS011;143;51.634;7.112;2023-12-20T09:05:18;26.47;;;6.77;;
313;SDS011;143;51.634;7.112;2023-12-20T09:07:43;34.50;;;6.43;;
313;SDS011;143;51.634;7.112;2023-12-20T09:10:09;31.60;;;5.60;;
313;SDS011;143;51.634;7.112;2023-12-20T09:12:35;26.07;;;6.43;;
313;SDS011;143;51.634;7.112;2023-12-20T09:15:03;27.75;;;6.80;;
313;SDS011;143;51.634;7.112;2023-12-20T09:17:29;26.30;;;5.90;;
313;SDS011;143;51.634;7.112;2023-12-20T09:19:54;26.47;;;6.50;;
313;SDS011;143;51.634;7.112;2023-12-20T09:22:25;31.20;;;5.70;;
313;SDS011;143;51.634;7.112;2023-12-20T09:24:53;23.70;;;6.07;;
313;SDS011;143;51.634;7.112;2023-12-20T09:27:18;26.03;;;6.43;;
313;SDS011;143;51.634;7.112;2023-12-20T09:29:44;29.30;;;6.40;;
313;SDS011;143;51.634;7.112;2023-12-20T09:32:09;29.93;;;7.07;;
313;SDS011;143;51.634;7.112;2023-12-20T09:34:35;28.00;;;5.70;;
313;SDS011;143;51.634;7.112;2023-12-20T09:37:02;33.10;;;5.40;;
313;SDS011;143;51.634;7.112;2023-12-20T09:39:28;27.93;;;5.80;;
313;SDS011;143;51.634;7.112;2023-12-20T09:44:22;26.57;;;6.97;;
313;SDS011;143;51.634;7.112;2023-12-20T09:46:49;22.73;;;6.17;;
313;SDS011;143;51.634;7.112;2023-12-20T09:49:16;30.73;;;5.80;;
313;SDS011;143;51.634;7.112;2023-12-20T09:51:44;18.17;;;5.77;;
313;SDS011;143;51.634;7.112;2023-12-20T09:54:12;24.93;;;6.20;;
313;SDS011;143;51.634;7.112;2023-12-20T09:56:42;17.57;;;5.67;;
313;SDS011;143;51.634;7.112;2023-12-20T09:59:07;36.70;;;9.10;;
313;SDS011;143;51.634;7.112;2023-12-20T10:01:33;21.83;;;5.13;;
313;SDS011;143;51.634;7.112;2023-12-20T10:04:00;16.93;;;4.47;;
313;SDS011;143;51.634;7.112;2023-12-20T10:06:31;23.30;;;6.03;;
313;SDS011;143;51.634;7.112;2023-12-20T10:08:57;28.37;;;5.97;;
313;SDS011;143;51.634;7.112;2023-12-20T10:11:23;36.23;;;5.63;;
313;SDS011;143;51.634;7.112;2023-12-20T10:13:50;24.90;;;5.67;;
313;SDS011;143;51.634;7.112;2023-12-20T10:16:15;21.70;;;5.63;;
313;SDS011;143;51.634;7.112;2023-12-20T10:18:41;28.63;;;5.50;;
313;SDS011;143;51.634;7.112;2023-12-20T10:21:06;22.23;;;5.70;;
313;SDS011;143;51.634;7.112;2023-12-20T10:23:38;22.57;;;5.40;;
313;SDS011;143;51.634;7.112;2023-12-20T10:26:04;11.97;;;4.60;;
313;SDS011;143;51.634;7.112;2023-12-20T10:28:33;31.90;;;5.80;;
313;SDS011;143;51.634;7.112;2023-12-20T10:30:59;12.03;;;4.67;;
313;SDS011;143;51.634;7.112;2023-12-20T10:33:26;22.07;;;5.83;;
313;SDS011;143;51.634;7.112;2023-12-20T10:35:53;17.70;;;5.93;;
313;SDS011;143;51.634;7.112;2023-12-20T10:38:19;29.73;;;6.37;;
313;SDS011;143;51.634;7.112;2023-12-20T10:40:45;19.27;;;5.40;;
313;SDS011;143;51.634;7.112;2023-12-20T10:43:11;34.70;;;6.30;;
313;SDS011;143;51.634;7.112;2023-12-20T10:45:37;31.07;;;5.97;;
313;SDS011;143;51.634;7.112;2023-12-20T10:48:03;31.63;;;6.17;;
313;SDS011;143;51.634;7.112;2023-12-20T10:50:30;33.40;;;6.90;;
313;SDS011;143;51.634;7.112;2023-12-20T10:52:56;30.63;;;6.43;;
313;SDS011;143;51.634;7.112;2023-12-20T10:55:23;24.17;;;5.40;;
313;SDS011;143;51.634;7.112;2023-12-20T10:57:52;20.20;;;6.03;;
313;SDS011;143;51.634;7.112;2023-12-20T11:00:23;40.57;;;6.50;;
313;SDS011;143;51.634;7.112;2023-12-20T11:02:49;35.27;;;6.60;;
313;SDS011;143;51.634;7.112;2023-12-20T11:05:19;25.10;;;5.93;;
313;SDS011;143;51.634;7.112;2023-12-20T11:07:52;22.17;;;5.60;;
313;SDS011;143;51.634;7.112;2023-12-20T11:13:17;16.77;;;6.00;;
313;SDS011;143;51.634;7.112;2023-12-20T11:15:47;22.83;;;5.10;;
313;SDS011;143;51.634;7.112;2023-12-20T11:18:13;18.10;;;5.57;;
313;SDS011;143;51.634;7.112;2023-12-20T11:20:40;25.07;;;6.73;;
313;SDS011;143;51.634;7.112;2023-12-20T11:23:07;29.03;;;7.33;;
313;SDS011;143;51.634;7.112;2023-12-20T11:25:46;28.03;;;6.23;;
313;SDS011;143;51.634;7.112;2023-12-20T11:28:13;14.87;;;5.73;;
313;SDS011;143;51.634;7.112;2023-12-20T11:30:45;20.43;;;5.53;;
313;SDS011;143;51.634;7.112;2023-12-20T11:33:12;21.87;;;6.93;;
313;SDS011;143;51.634;7.112;2023-12-20T11:35:39;35.33;;;8.90;;
313;SDS011;143;51.634;7.112;2023-12-20T11:38:07;25.10;;;5.33;;
313;SDS011;143;51.634;7.112;2023-12-20T11:40:33;25.60;;;5.40;;
313;SDS011;143;51.634;7.112;2023-12-20T11:42:59;16.97;;;5.47;;
313;SDS011;143;51.634;7.112;2023-12-20T11:45:25;26.40;;;6.00;;
313;SDS011;143;51.634;7.112;2023-12-20T11:47:52;29.73;;;6.40;;
313;SDS011;143;51.634;7.112;2023-12-20T11:50:20;30.87;;;6.33;;
313;SDS011;143;51.634;7.112;2023-12-20T11:52:47;22.17;;;6.20;;
313;SDS011;143;51.634;7.112;2023-12-20T11:55:13;19.40;;;6.40;;
313;SDS011;143;51.634;7.112;2023-12-20T11:57:39;26.67;;;8.50;;
313;SDS011;143;51.634;7.112;2023-12-20T12:00:07;24.93;;;5.77;;
313;SDS011;143;51.634;7.112;2023-12-20T12:02:33;32.43;;;7.67;;
313;SDS011;143;51.634;7.112;2023-12-20T12:04:59;29.40;;;6.90;;
313;SDS011;143;51.634;7.112;2023-12-20T12:07:25;23.10;;;5.97;;
313;SDS011;143;51.634;7.112;2023-12-20T12:09:50;30.30;;;7.90;;
313;SDS011;143;51.634;7.112;2023-12-20T12:12:17;28.57;;;7.43;;
313;SDS011;143;51.634;7.112;2023-12-20T12:14:44;34.53;;;8.17;;
313;SDS011;143;51.634;7.112;2023-12-20T12:17:11;27.37;;;6.63;;
313;SDS011;143;51.634;7.112;2023-12-20T12:19:42;16.67;;;6.17;;
313;SDS011;143;51.634;7.112;2023-12-20T12:22:08;20.03;;;7.30;;
313;SDS011;143;51.634;7.112;2023-12-20T12:24:42;20.87;;;7.20;;
313;SDS011;143;51.634;7.112;2023-12-20T12:27:08;20.73;;;7.10;;
313;SDS011;143;51.634;7.112;2023-12-20T12:29:35;25.53;;;7.87;;
313;SDS011;143;51.634;7.112;2023-12-20T12:32:05;27.20;;;7.87;;
313;SDS011;143;51.634;7.112;2023-12-20T12:34:32;20.07;;;6.77;;
313;SDS011;143;51.634;7.112;2023-12-20T12:37:01;29.07;;;8.50;;
313;SDS011;143;51.634;7.112;2023-12-20T12:39:29;22.20;;;6.73;;
313;SDS011;143;51.634;7.112;2023-12-20T12:41:55;22.13;;;6.73;;
313;SDS011;143;51.634;7.112;2023-12-20T12:44:21;33.43;;;7.47;;
313;SDS011;143;51.634;7.112;2023-12-20T12:46:48;37.97;;;7.67;;
313;SDS011;143;51.634;7.112;2023-12-20T12:49:19;23.47;;;7.30;;
313;SDS011;143;51.634;7.112;2023-12-20T12:51:46;32.50;;;7.20;;
313;SDS011;143;51.634;7.112;2023-12-20T12:54:11;19.33;;;6.77;;
313;SDS011;143;51.634;7.112;2023-12-20T12:56:38;15.77;;;6.73;;
313;SDS011;143;51.634;7.112;2023-12-20T12:59:03;25.13;;;6.33;;
313;SDS011;143;51.634;7.112;2023-12-20T13:01:30;25.03;;;6.77;;
313;SDS011;143;51.634;7.112;2023-12-20T13:03:56;31.93;;;7.27;;
313;SDS011;143;51.634;7.112;2023-12-20T13:06:22;17.97;;;5.67;;
313;SDS011;143;51.634;7.112;2023-12-20T13:08:47;30.13;;;6.57;;
313;SDS011;143;51.634;7.112;2023-12-20T13:11:13;34.80;;;7.43;;
313;SDS011;143;51.634;7.112;2023-12-20T13:13:39;28.77;;;8.43;;
313;SDS011;143;51.634;7.112;2023-12-20T13:16:04;24.57;;;6.40;;
313;SDS011;143;51.634;7.112;2023-12-20T13:18:30;18.97;;;5.90;;
313;SDS011;143;51.634;7.112;2023-12-20T13:20:56;26.83;;;6.70;;
313;SDS011;143;51.634;7.112;2023-12-20T13:23:21;22.83;;;5.80;;
313;SDS011;143;51.634;7.112;2023-12-20T13:25:47;24.03;;;5.40;;
313;SDS011;143;51.634;7.112;2023-12-20T13:28:13;21.23;;;6.40;;
313;SDS011;143;51.634;7.112;2023-12-20T13:30:39;18.97;;;5.70;;
313;SDS011;143;51.634;7.112;2023-12-20T13:33:05;21.53;;;4.87;;
313;SDS011;143;51.634;7.112;2023-12-20T13:35:31;15.87;;;5.77;;
313;SDS011;143;51.634;7.112;2023-12-20T13:37:57;19.47;;;7.17;;
313;SDS011;143;51.634;7.112;2023-12-20T13:40:23;29.20;;;7.03;;
313;SDS011;143;51.634;7.112;2023-12-20T13:42:48;17.67;;;6.33;;
313;SDS011;143;51.634;7.112;2023-12-20T13:45:14;23.67;;;5.70;;
313;SDS011;143;51.634;7.112;2023-12-20T13:47:40;20.23;;;5.73;;
313;SDS011;143;51.634;7.112;2023-12-20T13:50:05;25.13;;;6.60;;
313;SDS011;143;51.634;7.112;2023-12-20T13:52:31;23.97;;;6.17;;
313;SDS011;143;51.634;7.112;2023-12-20T13:54:57;22.87;;;7.73;;
313;SDS011;143;51.634;7.112;2023-12-20T13:57:22;25.73;;;6.43;;
313;SDS011;143;51.634;7.112;2023-12-20T13:59:48;27.87;;;7.37;;
313;SDS011;143;51.634;7.112;2023-12-20T14:02:13;17.13;;;6.00;;
313;SDS011;143;51.634;7.112;2023-12-20T14:04:39;25.60;;;6.70;;
313;SDS011;143;51.634;7.112;2023-12-20T14:07:05;18.80;;;6.70;;
313;SDS011;143;51.634;7.112;2023-12-20T14:09:32;15.90;;;5.73;;
313;SDS011;143;51.634;7.112;2023-12-20T14:11:58;22.23;;;6.97;;
313;SDS011;143;51.634;7.112;2023-12-20T14:14:24;16.90;;;7.40;;
313;SDS011;143;51.634;7.112;2023-12-20T14:16:49;23.07;;;7.30;;
313;SDS011;143;51.634;7.112;2023-12-20T14:19:16;15.27;;;6.53;;
313;SDS011;143;51.634;7.112;2023-12-20T14:21:41;22.83;;;6.60;;
313;SDS011;143;51.634;7.112;2023-12-20T14:24:07;19.47;;;6.83;;
313;SDS011;143;51.634;7.112;2023-12-20T14:26:33;20.63;;;6.97;;
313;SDS011;143;51.634;7.112;2023-12-20T14:28:58;25.33;;;7.87;;
313;SDS011;143;51.634;7.112;2023-12-20T14:31:24;14.93;;;6.97;;
313;SDS011;143;51.634;7.112;2023-12-20T14:33:50;13.73;;;6.07;;
313;SDS011;143;51.634;7.112;2023-12-20T14:36:18;19.03;;;6.33;;
313;SDS011;143;51.634;7.112;2023-12-20T14:38:45;21.27;;;6.73;;
313;SDS011;143;51.634;7.112;2023-12-20T14:41:12;20.97;;;6.70;;
313;SDS011;143;51.634;7.112;2023-12-20T14:43:37;19.27;;;6.50;;
313;SDS011;143;51.634;7.112;2023-12-20T14:46:03;17.17;;;7.00;;
313;SDS011;143;51.634;7.112;2023-12-20T14:48:30;23.73;;;8.33;;
313;SDS011;143;51.634;7.112;2023-12-20T14:50:57;25.83;;;8.50;;
313;SDS011;143;51.634;7.112;2023-12-20T14:53:24;22.23;;;8.87;;
313;SDS011;143;51.634;7.112;2023-12-20T14:55:50;31.80;;;8.27;;
313;SDS011;143;51.634;7.112;2023-12-20T14:58:16;23.30;;;8.57;;
313;SDS011;143;51.634;7.112;2023-12-20T15:00:41;23.70;;;9.10;;
313;SDS011;143;51.634;7.112;2023-12-20T15:03:07;26.77;;;8.70;;
313;SDS011;143;51.634;7.112;2023-12-20T15:05:33;20.90;;;7.83;;
313;SDS011;143;51.634;7.112;2023-12-20T15:07:59;20.57;;;7.87;;
313;SDS011;143;51.634;7.112;2023-12-20T15:10:24;17.20;;;7.77;;
313;SDS011;143;51.634;7.112;2023-12-20T15:12:50;26.27;;;9.20;;
313;SDS011;143;51.634;7.112;2023-12-20T15:15:15;24.20;;;8.90;;
313;SDS011;143;51.634;7.112;2023-12-20T15:17:41;21.33;;;9.33;;
313;SDS011;143;51.634;7.112;2023-12-20T15:20:07;30.00;;;8.70;;
313;SDS011;143;51.634;7.112;2023-12-20T15:22:35;28.97;;;9.80;;
313;SDS011;143;51.634;7.112;2023-12-20T15:25:01;28.17;;;9.67;;
313;SDS011;143;51.634;7.112;2023-12-20T15:27:28;20.83;;;9.10;;